sensor_id;sensor_type;location;lat;lon;timestamp;pressure;altitude;pressure_sealevel;temperature;humidity
8703;BME280;9002;42.708;23.186;2023-09-12T00:01:34;95155.91;;;20.87;47.02
8703;BME280;9002;42.708;23.186;2023-09-12T00:04:01;95159.88;;;20.90;46.70
8703;BME280;9002;42.708;23.186;2023-09-12T00:06:28;95147.59;;;21.12;46.39
8703;BME280;9002;42.708;23.186;2023-09-12T00:08:54;95159.81;;;20.68;47.68
8703;BME280;9002;42.708;23.186;2023-09-12T00:11:21;95160.16;;;20.71;47.41
8703;BME280;9002;42.708;23.186;2023-09-12T00:13:51;95126.28;;;20.75;47.17
8703;BME280;9002;42.708;23.186;2023-09-12T00:16:19;95136.06;;;20.18;48.83
8703;BME280;9002;42.708;23.186;2023-09-12T00:18:46;95110.91;;;20.22;48.51
8703;BME280;9002;42.708;23.186;2023-09-12T00:21:13;95149.84;;;20.53;48.29
8703;BME280;9002;42.708;23.186;2023-09-12T00:23:40;95157.16;;;20.51;48.30
8703;BME280;9002;42.708;23.186;2023-09-12T00:26:06;95158.16;;;20.79;47.97
8703;BME280;9002;42.708;23.186;2023-09-12T00:28:33;95123.56;;;20.53;47.64
8703;BME280;9002;42.708;23.186;2023-09-12T00:31:00;95140.22;;;20.30;48.58
8703;BME280;9002;42.708;23.186;2023-09-12T00:33:28;95175.88;;;20.26;49.33
8703;BME280;9002;42.708;23.186;2023-09-12T00:35:55;95166.84;;;20.05;49.26
8703;BME280;9002;42.708;23.186;2023-09-12T00:38:21;95147.31;;;20.01;48.49
8703;BME280;9002;42.708;23.186;2023-09-12T00:40:48;95178.06;;;20.01;48.92
8703;BME280;9002;42.708;23.186;2023-09-12T00:43:15;95178.66;;;19.91;49.10
8703;BME280;9002;42.708;23.186;2023-09-12T00:45:42;95159.78;;;20.23;48.24
8703;BME280;9002;42.708;23.186;2023-09-12T00:48:09;95145.63;;;19.95;48.69
8703;BME280;9002;42.708;23.186;2023-09-12T00:50:38;95182.13;;;20.37;48.55
8703;BME280;9002;42.708;23.186;2023-09-12T00:53:06;95178.56;;;20.15;48.57
8703;BME280;9002;42.708;23.186;2023-09-12T00:55:34;95171.53;;;20.03;49.07
8703;BME280;9002;42.708;23.186;2023-09-12T00:58:03;95151.81;;;19.89;49.17
8703;BME280;9002;42.708;23.186;2023-09-12T01:00:30;95188.06;;;20.16;49.01
8703;BME280;9002;42.708;23.186;2023-09-12T01:02:58;95147.31;;;20.01;49.20
8703;BME280;9002;42.708;23.186;2023-09-12T01:05:24;95186.88;;;19.83;49.83
8703;BME280;9002;42.708;23.186;2023-09-12T01:07:53;95184.63;;;19.75;50.29
8703;BME280;9002;42.708;23.186;2023-09-12T01:10:20;95155.81;;;19.92;49.20
8703;BME280;9002;42.708;23.186;2023-09-12T01:12:46;95188.16;;;20.21;49.29
8703;BME280;9002;42.708;23.186;2023-09-12T01:15:13;95188.75;;;19.71;50.44
8703;BME280;9002;42.708;23.186;2023-09-12T01:17:41;95175.41;;;19.49;50.37
8703;BME280;9002;42.708;23.186;2023-09-12T01:20:11;95192.28;;;19.65;50.41
8703;BME280;9002;42.708;23.186;2023-09-12T01:23:11;95163.44;;;19.18;50.46
8703;BME280;9002;42.708;23.186;2023-09-12T01:26:01;95200.16;;;19.18;50.96
8703;BME280;9002;42.708;23.186;2023-09-12T01:28:34;95205.28;;;19.13;51.18
8703;BME280;9002;42.708;23.186;2023-09-12T01:31:01;95144.50;;;19.16;49.94
8703;BME280;9002;42.708;23.186;2023-09-12T01:33:29;95171.31;;;19.30;50.52
8703;BME280;9002;42.708;23.186;2023-09-12T01:35:56;95179.84;;;19.49;50.11
8703;BME280;9002;42.708;23.186;2023-09-12T01:38:23;95189.00;;;19.34;50.79
8703;BME280;9002;42.708;23.186;2023-09-12T01:40:51;95196.41;;;19.14;51.80
8703;BME280;9002;42.708;23.186;2023-09-12T01:43:23;95193.44;;;18.87;52.72
8703;BME280;9002;42.708;23.186;2023-09-12T01:45:54;95132.53;;;18.73;51.69
8703;BME280;9002;42.708;23.186;2023-09-12T01:48:23;95190.00;;;19.10;51.91
8703;BME280;9002;42.708;23.186;2023-09-12T01:50:52;95201.88;;;19.12;51.77
8703;BME280;9002;42.708;23.186;2023-09-12T01:53:20;95162.75;;;18.76;52.33
8703;BME280;9002;42.708;23.186;2023-09-12T01:55:47;95162.75;;;18.88;52.10
8703;BME280;9002;42.708;23.186;2023-09-12T01:58:15;95206.56;;;19.10;52.58
8703;BME280;9002;42.708;23.186;2023-09-12T02:03:26;95208.38;;;19.45;51.63
8703;BME280;9002;42.708;23.186;2023-09-12T02:05:53;95207.81;;;19.43;51.53
8703;BME280;9002;42.708;23.186;2023-09-12T02:08:20;95163.75;;;18.63;53.14
8703;BME280;9002;42.708;23.186;2023-09-12T02:10:46;95212.72;;;19.28;52.55
8703;BME280;9002;42.708;23.186;2023-09-12T02:13:15;95206.34;;;19.35;51.92
8703;BME280;9002;42.708;23.186;2023-09-12T02:15:41;95199.69;;;19.09;52.30
8703;BME280;9002;42.708;23.186;2023-09-12T02:18:08;95170.63;;;18.76;52.74
8703;BME280;9002;42.708;23.186;2023-09-12T02:20:40;95179.97;;;18.84;52.71
8703;BME280;9002;42.708;23.186;2023-09-12T02:23:07;95181.66;;;18.78;52.94
8703;BME280;9002;42.708;23.186;2023-09-12T02:25:34;95215.66;;;18.85;53.16
8703;BME280;9002;42.708;23.186;2023-09-12T02:28:00;95200.41;;;19.05;52.82
8703;BME280;9002;42.708;23.186;2023-09-12T02:30:27;95210.22;;;18.98;52.77
8703;BME280;9002;42.708;23.186;2023-09-12T02:32:54;95186.47;;;18.39;54.10
8703;BME280;9002;42.708;23.186;2023-09-12T02:35:21;95152.69;;;18.61;52.67
8703;BME280;9002;42.708;23.186;2023-09-12T02:37:49;95137.72;;;18.50;52.85
8703;BME280;9002;42.708;23.186;2023-09-12T02:40:16;95145.03;;;18.60;52.69
8703;BME280;9002;42.708;23.186;2023-09-12T02:42:43;95205.25;;;18.66;53.56
8703;BME280;9002;42.708;23.186;2023-09-12T02:45:10;95211.72;;;18.64;53.47
8703;BME280;9002;42.708;23.186;2023-09-12T02:47:37;95220.09;;;18.42;53.92
8703;BME280;9002;42.708;23.186;2023-09-12T02:50:04;95192.28;;;18.41;53.67
8703;BME280;9002;42.708;23.186;2023-09-12T02:52:31;95203.50;;;18.60;53.49
8703;BME280;9002;42.708;23.186;2023-09-12T02:54:59;95213.47;;;18.40;54.37
8703;BME280;9002;42.708;23.186;2023-09-12T02:57:26;95213.16;;;18.60;54.02
8703;BME280;9002;42.708;23.186;2023-09-12T02:59:53;95179.09;;;18.48;53.81
8703;BME280;9002;42.708;23.186;2023-09-12T03:02:19;95207.53;;;18.74;53.53
8703;BME280;9002;42.708;23.186;2023-09-12T03:04:47;95185.44;;;18.40;53.41
8703;BME280;9002;42.708;23.186;2023-09-12T03:07:16;95216.06;;;18.70;53.83
8703;BME280;9002;42.708;23.186;2023-09-12T03:09:43;95211.41;;;18.72;53.63
8703;BME280;9002;42.708;23.186;2023-09-12T03:12:11;95209.38;;;18.74;53.08
8703;BME280;9002;42.708;23.186;2023-09-12T03:14:38;95200.38;;;18.40;53.69
8703;BME280;9002;42.708;23.186;2023-09-12T03:17:05;95213.72;;;18.92;52.73
8703;BME280;9002;42.708;23.186;2023-09-12T03:19:31;95216.44;;;18.73;52.77
8703;BME280;9002;42.708;23.186;2023-09-12T03:21:58;95215.09;;;18.83;53.02
8703;BME280;9002;42.708;23.186;2023-09-12T03:24:25;95215.41;;;18.74;53.07
8703;BME280;9002;42.708;23.186;2023-09-12T03:26:54;95210.88;;;18.82;52.58
8703;BME280;9002;42.708;23.186;2023-09-12T03:29:22;95218.97;;;19.15;51.74
8703;BME280;9002;42.708;23.186;2023-09-12T03:31:49;95201.44;;;19.04;51.71
8703;BME280;9002;42.708;23.186;2023-09-12T03:34:16;95212.84;;;18.98;51.38
8703;BME280;9002;42.708;23.186;2023-09-12T03:36:43;95195.88;;;18.29;52.50
8703;BME280;9002;42.708;23.186;2023-09-12T03:39:09;95222.16;;;18.22;53.53
8703;BME280;9002;42.708;23.186;2023-09-12T03:41:38;95221.56;;;18.50;53.01
8703;BME280;9002;42.708;23.186;2023-09-12T03:44:05;95202.09;;;18.46;52.31
8703;BME280;9002;42.708;23.186;2023-09-12T03:46:33;95163.56;;;18.05;52.76
8703;BME280;9002;42.708;23.186;2023-09-12T03:49:00;95227.38;;;18.52;52.84
8703;BME280;9002;42.708;23.186;2023-09-12T03:51:27;95230.13;;;18.57;53.17
8703;BME280;9002;42.708;23.186;2023-09-12T03:53:53;95224.72;;;18.10;54.51
8703;BME280;9002;42.708;23.186;2023-09-12T03:56:20;95223.28;;;17.96;54.88
8703;BME280;9002;42.708;23.186;2023-09-12T03:58:47;95223.47;;;18.13;54.80
8703;BME280;9002;42.708;23.186;2023-09-12T04:01:14;95191.38;;;17.69;55.25
8703;BME280;9002;42.708;23.186;2023-09-12T04:03:42;95153.34;;;17.30;56.43
8703;BME280;9002;42.708;23.186;2023-09-12T04:06:09;95200.63;;;17.90;56.08
8703;BME280;9002;42.708;23.186;2023-09-12T04:08:36;95206.81;;;17.77;56.72
8703;BME280;9002;42.708;23.186;2023-09-12T04:11:03;95228.53;;;18.44;55.52
8703;BME280;9002;42.708;23.186;2023-09-12T04:13:30;95227.09;;;17.82;57.17
8703;BME280;9002;42.708;23.186;2023-09-12T04:15:57;95235.59;;;17.77;57.07
8703;BME280;9002;42.708;23.186;2023-09-12T04:18:23;95236.94;;;17.62;57.83
8703;BME280;9002;42.708;23.186;2023-09-12T04:20:51;95238.13;;;17.66;57.41
8703;BME280;9002;42.708;23.186;2023-09-12T04:23:20;95221.16;;;17.50;57.77
8703;BME280;9002;42.708;23.186;2023-09-12T04:25:47;95237.22;;;17.54;57.78
8703;BME280;9002;42.708;23.186;2023-09-12T04:28:14;95228.81;;;17.70;57.63
8703;BME280;9002;42.708;23.186;2023-09-12T04:30:41;95225.75;;;17.91;56.98
8703;BME280;9002;42.708;23.186;2023-09-12T04:33:07;95203.41;;;18.07;55.64
8703;BME280;9002;42.708;23.186;2023-09-12T04:35:34;95205.97;;;17.95;56.15
8703;BME280;9002;42.708;23.186;2023-09-12T04:38:03;95239.97;;;18.32;55.90
8703;BME280;9002;42.708;23.186;2023-09-12T04:40:30;95221.28;;;18.28;55.57
8703;BME280;9002;42.708;23.186;2023-09-12T04:42:56;95246.19;;;18.01;56.33
8703;BME280;9002;42.708;23.186;2023-09-12T04:45:23;95242.28;;;18.40;55.25
8703;BME280;9002;42.708;23.186;2023-09-12T04:47:50;95242.94;;;18.35;55.54
8703;BME280;9002;42.708;23.186;2023-09-12T04:50:17;95241.25;;;18.41;55.31
8703;BME280;9002;42.708;23.186;2023-09-12T04:52:43;95246.72;;;18.39;55.27
8703;BME280;9002;42.708;23.186;2023-09-12T04:55:12;95246.81;;;18.14;56.47
8703;BME280;9002;42.708;23.186;2023-09-12T04:57:38;95229.97;;;17.92;56.47
8703;BME280;9002;42.708;23.186;2023-09-12T05:00:06;95257.59;;;18.25;55.67
8703;BME280;9002;42.708;23.186;2023-09-12T05:02:33;95131.09;;;17.39;55.90
8703;BME280;9002;42.708;23.186;2023-09-12T05:05:00;95223.00;;;17.86;56.00
8703;BME280;9002;42.708;23.186;2023-09-12T05:07:28;95251.78;;;18.23;55.33
8703;BME280;9002;42.708;23.186;2023-09-12T05:09:54;95251.63;;;18.18;55.59
8703;BME280;9002;42.708;23.186;2023-09-12T05:12:22;95249.66;;;18.13;55.63
8703;BME280;9002;42.708;23.186;2023-09-12T05:14:49;95250.75;;;18.05;55.80
8703;BME280;9002;42.708;23.186;2023-09-12T05:17:16;95256.94;;;18.11;55.89
8703;BME280;9002;42.708;23.186;2023-09-12T05:19:43;95231.19;;;18.26;54.92
8703;BME280;9002;42.708;23.186;2023-09-12T05:22:09;95253.22;;;18.37;55.07
8703;BME280;9002;42.708;23.186;2023-09-12T05:24:46;95252.63;;;18.35;55.35
8703;BME280;9002;42.708;23.186;2023-09-12T05:27:15;95254.09;;;18.31;55.54
8703;BME280;9002;42.708;23.186;2023-09-12T05:29:41;95257.88;;;18.17;55.67
8703;BME280;9002;42.708;23.186;2023-09-12T05:32:08;95249.44;;;18.33;55.08
8703;BME280;9002;42.708;23.186;2023-09-12T05:34:35;95256.28;;;18.15;55.40
8703;BME280;9002;42.708;23.186;2023-09-12T05:37:02;95237.09;;;18.03;55.53
8703;BME280;9002;42.708;23.186;2023-09-12T05:39:28;95216.53;;;17.89;55.59
8703;BME280;9002;42.708;23.186;2023-09-12T05:41:57;95255.53;;;18.45;55.22
8703;BME280;9002;42.708;23.186;2023-09-12T05:44:23;95192.72;;;18.08;54.43
8703;BME280;9002;42.708;23.186;2023-09-12T05:46:50;95226.09;;;18.13;54.74
8703;BME280;9002;42.708;23.186;2023-09-12T05:49:17;95261.22;;;18.54;54.59
8703;BME280;9002;42.708;23.186;2023-09-12T05:51:44;95258.91;;;18.15;55.53
8703;BME280;9002;42.708;23.186;2023-09-12T05:54:10;95268.94;;;18.37;54.85
8703;BME280;9002;42.708;23.186;2023-09-12T05:56:38;95231.34;;;18.13;54.92
8703;BME280;9002;42.708;23.186;2023-09-12T05:59:07;95262.03;;;18.54;54.38
8703;BME280;9002;42.708;23.186;2023-09-12T06:01:33;95265.53;;;18.66;54.27
8703;BME280;9002;42.708;23.186;2023-09-12T06:04:00;95245.84;;;18.75;53.26
8703;BME280;9002;42.708;23.186;2023-09-12T06:06:27;95246.06;;;18.74;53.31
8703;BME280;9002;42.708;23.186;2023-09-12T06:08:54;95270.63;;;18.91;53.09
8703;BME280;9002;42.708;23.186;2023-09-12T06:11:22;95243.00;;;18.77;52.73
8703;BME280;9002;42.708;23.186;2023-09-12T06:13:48;95263.69;;;19.08;52.46
8703;BME280;9002;42.708;23.186;2023-09-12T06:16:16;95266.31;;;19.08;52.37
8703;BME280;9002;42.708;23.186;2023-09-12T06:18:43;95211.94;;;18.62;52.07
8703;BME280;9002;42.708;23.186;2023-09-12T06:21:10;95200.44;;;18.63;51.84
8703;BME280;9002;42.708;23.186;2023-09-12T06:23:37;95255.94;;;19.13;51.46
8703;BME280;9002;42.708;23.186;2023-09-12T06:26:03;95265.88;;;19.23;51.26
8703;BME280;9002;42.708;23.186;2023-09-12T06:28:31;95268.50;;;19.23;51.08
8703;BME280;9002;42.708;23.186;2023-09-12T06:30:58;95271.50;;;19.50;50.65
8703;BME280;9002;42.708;23.186;2023-09-12T06:33:26;95276.47;;;19.17;50.88
8703;BME280;9002;42.708;23.186;2023-09-12T06:35:54;95266.59;;;18.77;51.74
8703;BME280;9002;42.708;23.186;2023-09-12T06:38:22;95263.88;;;18.84;52.09
8703;BME280;9002;42.708;23.186;2023-09-12T06:40:49;95280.25;;;19.21;51.34
8703;BME280;9002;42.708;23.186;2023-09-12T06:43:17;95271.94;;;19.47;50.29
8703;BME280;9002;42.708;23.186;2023-09-12T06:45:45;95277.34;;;19.64;49.52
8703;BME280;9002;42.708;23.186;2023-09-12T06:48:12;95279.25;;;19.92;49.08
8703;BME280;9002;42.708;23.186;2023-09-12T06:50:40;95198.69;;;19.22;49.48
8703;BME280;9002;42.708;23.186;2023-09-12T06:53:07;95164.38;;;18.89;49.55
8703;BME280;9002;42.708;23.186;2023-09-12T06:55:35;95242.72;;;19.43;49.61
8703;BME280;9002;42.708;23.186;2023-09-12T06:58:02;95280.06;;;19.69;49.70
8703;BME280;9002;42.708;23.186;2023-09-12T07:00:29;95194.34;;;19.28;49.37
8703;BME280;9002;42.708;23.186;2023-09-12T07:02:56;95266.34;;;19.90;48.90
8703;BME280;9002;42.708;23.186;2023-09-12T07:05:23;95288.03;;;19.97;48.36
8703;BME280;9002;42.708;23.186;2023-09-12T07:07:52;95178.97;;;19.31;48.53
8703;BME280;9002;42.708;23.186;2023-09-12T07:10:19;95264.63;;;19.84;48.96
8703;BME280;9002;42.708;23.186;2023-09-12T07:12:46;95280.72;;;19.99;48.53
8703;BME280;9002;42.708;23.186;2023-09-12T07:15:12;95275.34;;;20.06;48.55
8703;BME280;9002;42.708;23.186;2023-09-12T07:17:39;95221.25;;;19.93;47.53
8703;BME280;9002;42.708;23.186;2023-09-12T07:20:07;95288.25;;;20.19;48.17
8703;BME280;9002;42.708;23.186;2023-09-12T07:22:37;95268.28;;;20.06;47.88
8703;BME280;9002;42.708;23.186;2023-09-12T07:25:06;95285.91;;;20.23;47.88
8703;BME280;9002;42.708;23.186;2023-09-12T07:27:34;95270.91;;;20.06;48.05
8703;BME280;9002;42.708;23.186;2023-09-12T07:30:01;95284.53;;;20.32;47.74
8703;BME280;9002;42.708;23.186;2023-09-12T07:32:28;95247.13;;;20.13;47.10
8703;BME280;9002;42.708;23.186;2023-09-12T07:34:55;95231.50;;;20.06;47.24
8703;BME280;9002;42.708;23.186;2023-09-12T07:37:21;95287.53;;;20.64;46.13
8703;BME280;9002;42.708;23.186;2023-09-12T07:39:48;95246.47;;;20.46;45.16
8703;BME280;9002;42.708;23.186;2023-09-12T07:42:21;95280.56;;;20.69;44.80
8703;BME280;9002;42.708;23.186;2023-09-12T07:44:48;95280.97;;;20.78;44.89
8703;BME280;9002;42.708;23.186;2023-09-12T07:47:14;95271.06;;;20.85;44.47
8703;BME280;9002;42.708;23.186;2023-09-12T07:49:41;95279.19;;;21.12;43.96
8703;BME280;9002;42.708;23.186;2023-09-12T07:52:08;95276.03;;;20.98;44.36
8703;BME280;9002;42.708;23.186;2023-09-12T07:54:34;95277.69;;;20.88;44.44
8703;BME280;9002;42.708;23.186;2023-09-12T07:57:02;95244.44;;;20.82;44.93
8703;BME280;9002;42.708;23.186;2023-09-12T07:59:30;95275.72;;;21.23;44.42
8703;BME280;9002;42.708;23.186;2023-09-12T08:01:57;95250.63;;;21.21;44.80
8703;BME280;9002;42.708;23.186;2023-09-12T08:04:24;95244.13;;;21.23;44.30
8703;BME280;9002;42.708;23.186;2023-09-12T08:06:51;95234.38;;;21.24;44.06
8703;BME280;9002;42.708;23.186;2023-09-12T08:09:17;95201.97;;;21.06;43.95
8703;BME280;9002;42.708;23.186;2023-09-12T08:11:44;95246.28;;;21.26;43.89
8703;BME280;9002;42.708;23.186;2023-09-12T08:14:12;95258.97;;;21.29;44.42
8703;BME280;9002;42.708;23.186;2023-09-12T08:16:40;95277.97;;;21.70;43.68
8703;BME280;9002;42.708;23.186;2023-09-12T08:19:07;95282.94;;;21.66;43.13
8703;BME280;9002;42.708;23.186;2023-09-12T08:21:33;95280.84;;;21.68;43.52
8703;BME280;9002;42.708;23.186;2023-09-12T08:24:00;95275.19;;;21.77;43.27
8703;BME280;9002;42.708;23.186;2023-09-12T08:26:27;95270.38;;;21.90;42.65
8703;BME280;9002;42.708;23.186;2023-09-12T08:28:54;95262.22;;;21.92;42.30
8703;BME280;9002;42.708;23.186;2023-09-12T08:31:20;95268.56;;;21.96;42.88
8703;BME280;9002;42.708;23.186;2023-09-12T08:33:49;95242.13;;;22.07;41.12
8703;BME280;9002;42.708;23.186;2023-09-12T08:36:17;95203.19;;;21.71;41.19
8703;BME280;9002;42.708;23.186;2023-09-12T08:38:46;95268.25;;;22.31;41.36
8703;BME280;9002;42.708;23.186;2023-09-12T08:41:13;95186.97;;;21.79;41.27
8703;BME280;9002;42.708;23.186;2023-09-12T08:43:40;95172.75;;;21.80;40.95
8703;BME280;9002;42.708;23.186;2023-09-12T08:46:07;95253.06;;;22.38;40.44
8703;BME280;9002;42.708;23.186;2023-09-12T08:48:34;95256.06;;;22.47;40.40
8703;BME280;9002;42.708;23.186;2023-09-12T08:51:04;95257.97;;;22.56;40.24
8703;BME280;9002;42.708;23.186;2023-09-12T08:53:33;95251.16;;;22.60;39.94
8703;BME280;9002;42.708;23.186;2023-09-12T08:55:59;95250.03;;;22.78;39.63
8703;BME280;9002;42.708;23.186;2023-09-12T08:58:29;95212.69;;;22.37;39.76
8703;BME280;9002;42.708;23.186;2023-09-12T09:00:56;95245.38;;;22.63;39.69
8703;BME280;9002;42.708;23.186;2023-09-12T09:03:24;95203.06;;;22.53;39.11
8703;BME280;9002;42.708;23.186;2023-09-12T09:05:52;95214.47;;;22.59;39.05
8703;BME280;9002;42.708;23.186;2023-09-12T09:08:22;95172.94;;;22.17;39.48
8703;BME280;9002;42.708;23.186;2023-09-12T09:10:56;95217.81;;;22.76;38.91
8703;BME280;9002;42.708;23.186;2023-09-12T09:13:24;95247.91;;;23.02;38.34
8703;BME280;9002;42.708;23.186;2023-09-12T09:16:09;95230.94;;;23.30;37.95
8703;BME280;9002;42.708;23.186;2023-09-12T09:18:50;95204.25;;;23.63;37.59
8703;BME280;9002;42.708;23.186;2023-09-12T09:21:17;95244.31;;;24.60;36.14
8703;BME280;9002;42.708;23.186;2023-09-12T09:23:46;95241.50;;;25.12;34.96
8703;BME280;9002;42.708;23.186;2023-09-12T09:26:14;95240.91;;;24.95;35.37
8703;BME280;9002;42.708;23.186;2023-09-12T09:28:40;95224.50;;;24.93;34.91
8703;BME280;9002;42.708;23.186;2023-09-12T09:31:10;95221.06;;;24.77;35.23
8703;BME280;9002;42.708;23.186;2023-09-12T09:33:37;95191.69;;;24.68;36.09
8703;BME280;9002;42.708;23.186;2023-09-12T09:36:06;95217.63;;;24.87;36.06
8703;BME280;9002;42.708;23.186;2023-09-12T09:38:34;95202.53;;;24.87;35.37
8703;BME280;9002;42.708;23.186;2023-09-12T09:41:05;95214.22;;;25.01;35.89
8703;BME280;9002;42.708;23.186;2023-09-12T09:43:32;95216.06;;;25.01;34.78
8703;BME280;9002;42.708;23.186;2023-09-12T09:45:59;95218.72;;;25.11;34.68
8703;BME280;9002;42.708;23.186;2023-09-12T09:48:27;95208.13;;;25.11;35.02
8703;BME280;9002;42.708;23.186;2023-09-12T09:51:00;95168.13;;;24.77;34.93
8703;BME280;9002;42.708;23.186;2023-09-12T09:53:28;95207.34;;;25.11;35.17
8703;BME280;9002;42.708;23.186;2023-09-12T09:56:09;95197.78;;;25.30;34.87
8703;BME280;9002;42.708;23.186;2023-09-12T09:58:36;95164.94;;;25.31;34.38
8703;BME280;9002;42.708;23.186;2023-09-12T10:01:06;95186.34;;;25.50;33.96
8703;BME280;9002;42.708;23.186;2023-09-12T10:03:36;95198.00;;;25.69;34.41
8703;BME280;9002;42.708;23.186;2023-09-12T10:06:04;95135.19;;;25.54;34.17
8703;BME280;9002;42.708;23.186;2023-09-12T10:08:32;95177.81;;;25.88;34.20
8703;BME280;9002;42.708;23.186;2023-09-12T10:10:59;95157.09;;;25.95;33.32
8703;BME280;9002;42.708;23.186;2023-09-12T10:13:28;95164.94;;;26.11;33.56
8703;BME280;9002;42.708;23.186;2023-09-12T10:15:58;95172.09;;;26.15;33.80
8703;BME280;9002;42.708;23.186;2023-09-12T10:18:35;95175.03;;;26.09;33.88
8703;BME280;9002;42.708;23.186;2023-09-12T10:21:10;95171.41;;;26.54;33.24
8703;BME280;9002;42.708;23.186;2023-09-12T10:23:44;95137.19;;;26.47;32.60
8703;BME280;9002;42.708;23.186;2023-09-12T10:26:12;95146.03;;;26.72;32.35
8703;BME280;9002;42.708;23.186;2023-09-12T10:28:41;95164.63;;;27.11;32.15
8703;BME280;9002;42.708;23.186;2023-09-12T10:31:08;95094.47;;;26.78;32.22
8703;BME280;9002;42.708;23.186;2023-09-12T10:33:37;95163.63;;;27.30;31.78
8703;BME280;9002;42.708;23.186;2023-09-12T10:36:06;95167.81;;;27.37;31.58
8703;BME280;9002;42.708;23.186;2023-09-12T10:38:40;95160.28;;;27.44;31.56
8703;BME280;9002;42.708;23.186;2023-09-12T10:41:11;95122.28;;;27.43;30.97
8703;BME280;9002;42.708;23.186;2023-09-12T10:43:41;95139.81;;;27.44;31.00
8703;BME280;9002;42.708;23.186;2023-09-12T10:46:08;95134.56;;;27.39;31.57
8703;BME280;9002;42.708;23.186;2023-09-12T10:48:36;95133.22;;;27.42;31.58
8703;BME280;9002;42.708;23.186;2023-09-12T10:51:06;95144.16;;;27.64;31.36
8703;BME280;9002;42.708;23.186;2023-09-12T10:53:34;95131.50;;;27.99;30.87
8703;BME280;9002;42.708;23.186;2023-09-12T10:56:14;95140.19;;;28.28;30.68
8703;BME280;9002;42.708;23.186;2023-09-12T10:59:13;95084.94;;;28.20;29.71
8703;BME280;9002;42.708;23.186;2023-09-12T11:01:42;95138.09;;;28.63;29.83
8703;BME280;9002;42.708;23.186;2023-09-12T11:04:38;95076.09;;;28.76;29.56
8703;BME280;9002;42.708;23.186;2023-09-12T11:07:30;95005.75;;;28.31;29.30
8703;BME280;9002;42.708;23.186;2023-09-12T11:10:22;95124.16;;;29.17;29.17
8703;BME280;9002;42.708;23.186;2023-09-12T11:13:10;95117.31;;;28.97;29.63
8703;BME280;9002;42.708;23.186;2023-09-12T11:16:32;95111.09;;;29.02;29.68
8703;BME280;9002;42.708;23.186;2023-09-12T11:19:12;95099.88;;;29.18;29.22
8703;BME280;9002;42.708;23.186;2023-09-12T11:21:39;95096.06;;;29.66;28.96
8703;BME280;9002;42.708;23.186;2023-09-12T11:24:06;95108.28;;;30.21;28.18
8703;BME280;9002;42.708;23.186;2023-09-12T11:26:33;95107.09;;;30.50;28.13
8703;BME280;9002;42.708;23.186;2023-09-12T11:29:10;95105.72;;;30.75;27.24
8703;BME280;9002;42.708;23.186;2023-09-12T11:36:59;95081.19;;;31.17;26.26
8703;BME280;9002;42.708;23.186;2023-09-12T11:39:29;95100.28;;;31.42;25.86
8703;BME280;9002;42.708;23.186;2023-09-12T11:41:57;95081.59;;;31.50;26.45
8703;BME280;9002;42.708;23.186;2023-09-12T11:44:24;95063.81;;;31.46;25.77
8703;BME280;9002;42.708;23.186;2023-09-12T11:46:51;95044.34;;;31.63;25.65
8703;BME280;9002;42.708;23.186;2023-09-12T11:49:19;95064.28;;;32.05;25.25
8703;BME280;9002;42.708;23.186;2023-09-12T11:51:50;95082.59;;;32.29;25.53
8703;BME280;9002;42.708;23.186;2023-09-12T11:54:25;95088.75;;;32.29;25.34
8703;BME280;9002;42.708;23.186;2023-09-12T11:56:52;95064.59;;;32.12;24.88
8703;BME280;9002;42.708;23.186;2023-09-12T11:59:22;95079.91;;;32.46;25.25
8703;BME280;9002;42.708;23.186;2023-09-12T12:01:49;95082.25;;;32.65;24.29
8703;BME280;9002;42.708;23.186;2023-09-12T12:04:17;95078.59;;;31.92;25.27
8703;BME280;9002;42.708;23.186;2023-09-12T12:06:43;95071.22;;;32.14;24.82
8703;BME280;9002;42.708;23.186;2023-09-12T12:09:10;95066.44;;;31.85;25.21
8703;BME280;9002;42.708;23.186;2023-09-12T12:11:39;95078.03;;;32.29;25.17
8703;BME280;9002;42.708;23.186;2023-09-12T12:14:14;95072.81;;;32.59;24.84
8703;BME280;9002;42.708;23.186;2023-09-12T12:16:41;95053.88;;;32.55;24.37
8703;BME280;9002;42.708;23.186;2023-09-12T12:19:08;95071.22;;;32.92;23.63
8703;BME280;9002;42.708;23.186;2023-09-12T12:21:35;95067.78;;;33.21;24.18
8703;BME280;9002;42.708;23.186;2023-09-12T12:24:02;95061.72;;;33.50;23.76
8703;BME280;9002;42.708;23.186;2023-09-12T12:26:30;95059.88;;;33.42;23.29
8703;BME280;9002;42.708;23.186;2023-09-12T12:28:59;95048.50;;;32.90;23.85
8703;BME280;9002;42.708;23.186;2023-09-12T12:31:26;95057.91;;;33.04;23.27
8703;BME280;9002;42.708;23.186;2023-09-12T12:33:54;95039.53;;;33.32;23.01
8703;BME280;9002;42.708;23.186;2023-09-12T12:36:21;95049.16;;;34.13;22.13
8703;BME280;9002;42.708;23.186;2023-09-12T12:38:49;95038.94;;;34.27;22.05
8703;BME280;9002;42.708;23.186;2023-09-12T12:41:16;95052.25;;;34.24;22.32
8703;BME280;9002;42.708;23.186;2023-09-12T12:43:49;95058.28;;;34.00;22.49
8703;BME280;9002;42.708;23.186;2023-09-12T12:46:18;95017.81;;;33.08;22.68
8703;BME280;9002;42.708;23.186;2023-09-12T12:48:47;95029.84;;;32.93;23.24
8703;BME280;9002;42.708;23.186;2023-09-12T12:54:05;95033.78;;;33.72;22.94
8703;BME280;9002;42.708;23.186;2023-09-12T12:56:32;95030.50;;;34.37;22.15
8703;BME280;9002;42.708;23.186;2023-09-12T12:59:00;95012.28;;;34.22;22.08
8703;BME280;9002;42.708;23.186;2023-09-12T13:01:29;94991.16;;;34.54;21.90
8703;BME280;9002;42.708;23.186;2023-09-12T13:03:56;95002.56;;;34.84;21.68
8703;BME280;9002;42.708;23.186;2023-09-12T13:06:23;95019.53;;;35.08;21.40
8703;BME280;9002;42.708;23.186;2023-09-12T13:08:51;95025.59;;;35.18;21.52
8703;BME280;9002;42.708;23.186;2023-09-12T13:11:18;94997.56;;;34.61;21.10
8703;BME280;9002;42.708;23.186;2023-09-12T13:13:47;95024.88;;;34.96;20.92
8703;BME280;9002;42.708;23.186;2023-09-12T13:16:14;95029.72;;;34.70;21.50
8703;BME280;9002;42.708;23.186;2023-09-12T13:18:43;95023.53;;;34.90;21.13
8703;BME280;9002;42.708;23.186;2023-09-12T13:21:10;94972.91;;;34.71;21.33
8703;BME280;9002;42.708;23.186;2023-09-12T13:23:37;95017.06;;;35.16;21.42
8703;BME280;9002;42.708;23.186;2023-09-12T13:26:06;94989.50;;;35.31;20.99
8703;BME280;9002;42.708;23.186;2023-09-12T13:28:33;95006.09;;;35.21;21.28